Alabaster, Alabama
Current Conditions -  °F | °C
As of 8:53 AM on Wednesday 22 Oct 2014 (Local Time) from KEET Reporting Station
Clear Clear  
Wind Chill: 57°   Ceiling: Unl
Heat Index: 57°   Visibility: 10mi
Dew Point: 41°   Wind: 6mph
Humidity: 55%   Direction: 20°NNE
Pressure: 30.17"   Gusts: NA
Location:  33.25°N, 86.82°W
Report Text: KEET 221353Z AUTO 02005KT 10SM CLR 14/05 A3017 RMK AO2 SLP212 T01390050
Loading
Personal Weather Stations






























Interactive Weather Map New forecast layout! Learn more

10-Day Weather Forecast

Advertisements
Track Severe Weather on mobile